Consulta los datos en tiempo real de la estación meteorológica de Montseny - Vallcàrquera
| Hora UTC | 05:40 |
|---|---|
| Temperatura | 20.2 ºC |
| Humedad | 67.0 % |
| Pluja | 0.0 mm |
| Velocidad viento | 1.0 km/h |
| Dirección viento | NNE |
| Radiación solar | 12.9 W/m² |
| Temperatura (ºC) | Humedad (%) | Velocidad viento (km/h) | Precipitación (mm) | Radiación solar (W/m²) | ||||||||||||
|---|---|---|---|---|---|---|---|---|---|---|---|---|---|---|---|---|
| Hora UTC | Aire | Humedad | Vel. | Dir. | Vel. Max | Dir. | Intent. máx 5 min. | Rad. Sol. | ||||||||
| 00:05 | 22.5 | 57.9 | 1.0 | NNE | 1.0 | N | 0.0 | 0.0 | ||||||||
| 00:10 | 22.1 | 59.6 | 1.8 | NE | 3.2 | NNE | 0.0 | 0.0 | ||||||||
| 00:15 | 22.4 | 58.6 | 1.8 | N | 2.8 | N | 0.0 | 0.0 | ||||||||
| 00:20 | 22.3 | 58.6 | 1.4 | NNE | 2.8 | ENE | 0.0 | 0.0 | ||||||||
| 00:25 | 22.2 | 59.2 | 1.9 | NE | 3.5 | NE | 0.0 | 0.0 | ||||||||
| 00:30 | 22.2 | 59.5 | 2.4 | NE | 4.6 | ENE | 0.0 | 0.0 | ||||||||
| 00:35 | 21.9 | 60.9 | 1.7 | NE | 3.2 | ENE | 0.0 | 0.0 | ||||||||
| 00:40 | 21.8 | 60.9 | 2.2 | NE | 4.6 | ENE | 0.0 | 0.0 | ||||||||
| 00:45 | 22.0 | 60.6 | 1.5 | NNE | 3.2 | NNE | 0.0 | 0.0 | ||||||||
| 00:50 | 21.8 | 61.2 | 1.4 | NE | 2.8 | NE | 0.0 | 0.0 | ||||||||
| 00:55 | 21.8 | 61.2 | 1.5 | NNE | 3.2 | NE | 0.0 | 0.0 | ||||||||
| 01:00 | 21.9 | 60.6 | 1.7 | NNE | 4.2 | NE | 0.0 | 0.0 | ||||||||
| 01:05 | 21.9 | 60.9 | 1.4 | NNE | 3.2 | NE | 0.0 | 0.0 | ||||||||
| 01:10 | 21.3 | 63.0 | 2.5 | ENE | 7.1 | E | 0.0 | 0.0 | ||||||||
| 01:15 | 21.3 | 63.2 | 2.0 | NE | 3.9 | ENE | 0.0 | 0.0 | ||||||||
| 01:20 | 21.2 | 63.2 | 1.8 | NE | 3.9 | NE | 0.0 | 0.0 | ||||||||
| 01:25 | 21.4 | 62.0 | 2.1 | NE | 4.2 | NE | 0.0 | 0.0 | ||||||||
| 01:30 | 21.4 | 62.3 | 1.5 | NE | 3.9 | ENE | 0.0 | 0.0 | ||||||||
| 01:35 | 21.3 | 62.7 | 3.5 | ENE | 6.7 | ENE | 0.0 | 0.0 | ||||||||
| 01:40 | 21.2 | 63.1 | 2.1 | NE | 3.2 | N | 0.0 | 0.0 | ||||||||
| 01:45 | 21.1 | 63.4 | 3.7 | ENE | 6.4 | ENE | 0.0 | 0.0 | ||||||||
| 01:50 | 21.2 | 63.0 | 2.5 | NNE | 4.2 | ENE | 0.0 | 0.0 | ||||||||
| 01:55 | 21.1 | 63.8 | 0.7 | NE | 2.5 | ENE | 0.0 | 0.0 | ||||||||
| 02:00 | 21.1 | 63.6 | 1.6 | NE | 3.2 | ENE | 0.0 | 0.0 | ||||||||
| 02:05 | 21.0 | 63.6 | 1.1 | NNE | 2.1 | NNE | 0.0 | 0.0 | ||||||||
| 02:10 | 21.1 | 63.0 | 2.2 | NE | 4.6 | ENE | 0.0 | 0.0 | ||||||||
| 02:15 | 21.0 | 63.8 | 2.9 | NE | 4.9 | ENE | 0.0 | 0.0 | ||||||||
| 02:20 | 21.0 | 63.7 | 2.3 | NE | 5.3 | ENE | 0.0 | 0.0 | ||||||||
| 02:25 | 21.0 | 63.9 | 2.7 | NE | 4.9 | ENE | 0.0 | 0.0 | ||||||||
| 02:30 | 21.0 | 64.1 | 1.3 | NNE | 3.2 | N | 0.0 | 0.0 | ||||||||
| 02:35 | 20.9 | 64.1 | 1.0 | NNE | 2.8 | E | 0.0 | 0.0 | ||||||||
| 02:40 | 21.1 | 63.2 | 2.2 | NE | 3.5 | ENE | 0.0 | 0.0 | ||||||||
| 02:45 | 20.9 | 64.1 | 2.9 | NE | 4.2 | ENE | 0.0 | 0.0 | ||||||||
| 02:50 | 20.8 | 64.3 | 3.4 | ENE | 4.6 | ENE | 0.0 | 0.0 | ||||||||
| 02:55 | 21.0 | 63.9 | 2.4 | NE | 3.9 | NE | 0.0 | 0.0 | ||||||||
| 03:00 | 20.9 | 64.2 | 1.8 | NE | 3.9 | NE | 0.0 | 0.0 | ||||||||
| 03:05 | 20.9 | 64.5 | 1.9 | NE | 2.8 | NE | 0.0 | 0.0 | ||||||||
| 03:10 | 20.8 | 65.1 | 1.5 | NE | 2.8 | NE | 0.0 | 0.0 | ||||||||
| 03:15 | 20.8 | 65.1 | 1.4 | NE | 2.8 | ENE | 0.0 | 0.0 | ||||||||
| 03:20 | 20.8 | 65.1 | 2.6 | NE | 3.9 | ENE | 0.0 | 0.0 | ||||||||
| 03:25 | 20.8 | 65.7 | 1.8 | NNE | 3.5 | NNE | 0.0 | 0.0 | ||||||||
| 03:30 | 20.6 | 66.3 | 3.3 | ENE | 5.3 | ENE | 0.0 | 0.0 | ||||||||
| 03:35 | 20.5 | 67.0 | 1.8 | NE | 3.2 | NE | 0.0 | 0.0 | ||||||||
| 03:40 | 20.4 | 67.1 | 2.6 | NE | 4.2 | ENE | 0.0 | 0.0 | ||||||||
| 03:45 | 20.5 | 66.6 | 2.3 | NE | 3.9 | ENE | 0.0 | 0.0 | ||||||||
| 03:50 | 20.5 | 66.5 | 3.4 | ENE | 5.3 | ENE | 0.0 | 0.0 | ||||||||
| 03:55 | 20.6 | 66.0 | 3.1 | NE | 4.9 | ENE | 0.0 | 0.0 | ||||||||
| 04:00 | 20.5 | 66.2 | 2.1 | NE | 4.2 | ENE | 0.0 | 0.0 | ||||||||
| 04:05 | 20.5 | 66.1 | 1.9 | NE | 3.5 | NNE | 0.0 | 0.0 | ||||||||
| 04:10 | 20.5 | 66.6 | 0.9 | NNE | 2.1 | NE | 0.0 | 0.0 | ||||||||
| 04:15 | 20.5 | 66.9 | 1.1 | NNE | 2.5 | NE | 0.0 | 0.0 | ||||||||
| 04:20 | 20.6 | 66.4 | 3.0 | NE | 5.3 | ENE | 0.0 | 0.0 | ||||||||
| 04:25 | 20.4 | 66.8 | 1.8 | NE | 4.2 | ENE | 0.0 | 0.0 | ||||||||
| 04:30 | 20.2 | 67.5 | 2.6 | ENE | 5.3 | ENE | 0.0 | 0.0 | ||||||||
| 04:35 | 20.2 | 67.6 | 1.6 | NE | 3.2 | NNE | 0.0 | 0.0 | ||||||||
| 04:40 | 20.3 | 67.4 | 1.8 | NNE | 2.8 | ENE | 0.0 | 0.0 | ||||||||
| 04:45 | 20.2 | 67.5 | 1.2 | NNE | 2.8 | NE | 0.0 | 0.0 | ||||||||
| 04:50 | 20.2 | 67.9 | 1.9 | NE | 3.2 | ENE | 0.0 | 0.0 | ||||||||
| 04:55 | 20.1 | 67.6 | 3.5 | ENE | 6.0 | ENE | 0.0 | 0.0 | ||||||||
| 05:00 | 20.1 | 67.5 | 1.9 | NNE | 3.2 | NNE | 0.0 | 0.0 | ||||||||
| 05:05 | 20.0 | 67.7 | 3.3 | ENE | 4.6 | ENE | 0.0 | 0.0 | ||||||||
| 05:10 | 20.1 | 67.0 | 1.2 | NNE | 2.8 | ENE | 0.0 | 0.0 | ||||||||
| 05:15 | 20.0 | 67.8 | 1.7 | NE | 3.9 | ENE | 0.0 | 0.1 | ||||||||
| 05:20 | 20.1 | 66.9 | 1.4 | NNE | 3.5 | ENE | 0.0 | 1.1 | ||||||||
| 05:25 | 20.2 | 67.1 | 1.7 | N | 2.8 | N | 0.0 | 2.6 | ||||||||
| 05:30 | 20.0 | 67.4 | 2.7 | ENE | 4.9 | ENE | 0.0 | 3.9 | ||||||||
| 05:35 | 19.9 | 67.5 | 2.0 | NE | 5.3 | NE | 0.0 | 8.1 | ||||||||
| 05:40 | 20.2 | 67.0 | 1.0 | NNE | 2.8 | NE | 0.0 | 12.9 | ||||||||
| Máxima | 22.5 | 67.9 | 3.7 | ENE | 7.1 | E | 0.0 | 12.9 | ||||||||
| Mínima | 19.9 | 57.9 | ||||||||||||||
| Total | 0.0 | |||||||||||||||